createdAt,value
2017-03-01T00:00:25.162Z,0
2017-03-01T00:01:05.762Z,0
2017-03-01T00:01:46.403Z,0
2017-03-01T00:02:27.017Z,0
2017-03-01T00:03:07.582Z,0
2017-03-01T00:03:48.167Z,0
2017-03-01T00:04:28.768Z,0
2017-03-01T00:05:09.374Z,0
2017-03-01T00:05:50.008Z,0
2017-03-01T00:06:30.577Z,0
2017-03-01T00:07:11.145Z,0
2017-03-01T00:07:51.769Z,0
2017-03-01T00:08:32.375Z,0
2017-03-01T00:09:12.959Z,0
2017-03-01T00:09:53.536Z,0
2017-03-01T00:10:34.113Z,0
2017-03-01T00:11:14.678Z,0
2017-03-01T00:11:55.276Z,0
2017-03-01T00:12:35.865Z,0
2017-03-01T00:13:16.451Z,0
2017-03-01T00:13:57.030Z,0
2017-03-01T00:14:37.622Z,0
2017-03-01T00:15:18.214Z,0
2017-03-01T00:15:58.805Z,0
2017-03-01T00:16:39.394Z,0
2017-03-01T00:17:19.968Z,0
2017-03-01T00:18:00.545Z,0
2017-03-01T00:18:41.136Z,0
2017-03-01T00:19:21.751Z,0
2017-03-01T00:20:02.326Z,0
2017-03-01T00:20:42.957Z,0
2017-03-01T00:21:23.530Z,0
2017-03-01T00:22:04.117Z,0
2017-03-01T00:22:44.704Z,0
2017-03-01T00:23:25.276Z,0
2017-03-01T00:24:05.872Z,0
2017-03-01T00:24:46.453Z,0
2017-03-01T00:25:27.053Z,0
2017-03-01T00:26:07.628Z,0
2017-03-01T00:26:48.205Z,0
2017-03-01T00:27:28.793Z,0
2017-03-01T00:28:09.364Z,0
2017-03-01T00:28:49.945Z,0
2017-03-01T00:29:30.511Z,0
2017-03-01T00:30:11.100Z,0
2017-03-01T00:30:51.665Z,0
2017-03-01T00:31:32.242Z,0
2017-03-01T00:32:12.836Z,0
2017-03-01T00:32:53.549Z,0
2017-03-01T00:33:34.107Z,0
2017-03-01T00:34:14.673Z,0
2017-03-01T00:34:55.258Z,0
2017-03-01T00:35:35.856Z,0
2017-03-01T00:36:16.445Z,0
2017-03-01T00:36:57.035Z,0
2017-03-01T00:37:37.599Z,0
2017-03-01T00:38:18.214Z,0
2017-03-01T00:38:58.851Z,0
2017-03-01T00:39:39.449Z,0
2017-03-01T00:40:20.063Z,0
2017-03-01T00:41:00.634Z,0
2017-03-01T00:41:41.270Z,0
2017-03-01T00:42:21.883Z,0
2017-03-01T00:43:02.455Z,0
2017-03-01T00:43:43.086Z,0
2017-03-01T00:44:23.688Z,0
2017-03-01T00:45:04.275Z,0
2017-03-01T00:45:44.890Z,0
2017-03-01T00:46:25.494Z,0
2017-03-01T00:47:06.066Z,0
2017-03-01T00:47:46.669Z,0
2017-03-01T00:48:27.256Z,0
2017-03-01T00:49:07.872Z,0
2017-03-01T00:49:48.452Z,0
2017-03-01T00:50:29.043Z,0
2017-03-01T00:51:09.620Z,0
2017-03-01T00:51:50.210Z,0
2017-03-01T00:52:30.779Z,0
2017-03-01T00:53:11.389Z,0
2017-03-01T00:53:51.946Z,0
2017-03-01T00:54:32.519Z,0
2017-03-01T00:55:13.117Z,0
2017-03-01T00:55:54.278Z,0
2017-03-01T00:56:34.288Z,0
2017-03-01T00:57:14.902Z,0
2017-03-01T00:57:55.465Z,0
2017-03-01T00:58:36.040Z,0
2017-03-01T00:59:16.603Z,0
2017-03-01T00:59:57.180Z,0
2017-03-01T01:00:37.781Z,0
2017-03-01T01:01:18.349Z,0
2017-03-01T01:01:58.935Z,0
2017-03-01T01:02:39.521Z,0
2017-03-01T01:03:20.101Z,0
2017-03-01T01:04:00.686Z,0
2017-03-01T01:04:41.260Z,0
2017-03-01T01:05:21.827Z,0
2017-03-01T01:06:02.405Z,0
2017-03-01T01:06:42.988Z,0
2017-03-01T01:07:23.580Z,0
2017-03-01T01:08:04.198Z,0
2017-03-01T01:08:44.788Z,0
2017-03-01T01:09:25.393Z,0
2017-03-01T01:10:05.993Z,0
2017-03-01T01:10:46.557Z,0
2017-03-01T01:11:27.135Z,0
2017-03-01T01:12:07.700Z,0
2017-03-01T01:12:48.273Z,0
2017-03-01T01:13:28.850Z,0
2017-03-01T01:14:09.433Z,0
2017-03-01T01:14:50.004Z,0
2017-03-01T01:15:30.591Z,0
2017-03-01T01:16:11.167Z,0
2017-03-01T01:16:51.764Z,0
2017-03-01T01:17:32.353Z,0
2017-03-01T01:18:12.945Z,0
2017-03-01T01:18:53.490Z,0
2017-03-01T01:19:34.081Z,0
2017-03-01T01:20:14.669Z,0
2017-03-01T01:20:55.237Z,0
2017-03-01T01:21:35.879Z,0
2017-03-01T01:22:16.480Z,0
2017-03-01T01:22:57.069Z,0
2017-03-01T01:23:37.632Z,0
2017-03-01T01:24:18.240Z,0
2017-03-01T01:24:58.813Z,0
2017-03-01T01:25:39.388Z,0
2017-03-01T01:26:20.000Z,0
2017-03-01T01:27:00.625Z,0
2017-03-01T01:27:41.212Z,0
2017-03-01T01:28:21.814Z,0
2017-03-01T01:29:02.392Z,0
2017-03-01T01:29:42.955Z,0
2017-03-01T01:30:23.529Z,0
2017-03-01T01:31:04.117Z,0
2017-03-01T01:31:44.708Z,0
2017-03-01T01:32:25.278Z,0
2017-03-01T01:33:05.910Z,0
2017-03-01T01:33:46.484Z,0
2017-03-01T01:34:27.069Z,0
2017-03-01T01:35:07.632Z,0
2017-03-01T01:35:48.232Z,0
2017-03-01T01:36:28.823Z,0
2017-03-01T01:37:09.379Z,0
2017-03-01T01:37:49.969Z,0
2017-03-01T01:38:30.557Z,0
2017-03-01T01:39:11.155Z,0
2017-03-01T01:39:51.770Z,0
2017-03-01T01:40:32.374Z,0
2017-03-01T01:41:12.947Z,0
2017-03-01T01:41:53.559Z,0
2017-03-01T01:42:34.145Z,0
2017-03-01T01:43:14.718Z,0
2017-03-01T01:43:55.293Z,0
2017-03-01T01:44:35.904Z,0
2017-03-01T01:45:16.542Z,0
2017-03-01T01:45:57.170Z,0
2017-03-01T01:46:37.748Z,0
2017-03-01T01:47:18.334Z,0
2017-03-01T01:47:58.931Z,0
2017-03-01T01:48:39.499Z,0
2017-03-01T01:49:20.083Z,0
2017-03-01T01:50:00.709Z,0
2017-03-01T01:50:41.291Z,0
2017-03-01T01:51:21.881Z,0
2017-03-01T01:52:02.447Z,0
2017-03-01T01:52:43.024Z,0
2017-03-01T01:53:23.602Z,0
2017-03-01T01:54:04.204Z,0
2017-03-01T01:54:44.771Z,0
2017-03-01T01:55:25.340Z,0
2017-03-01T01:56:05.915Z,0
2017-03-01T01:56:46.493Z,0
2017-03-01T01:57:27.101Z,0
2017-03-01T01:58:07.671Z,0
2017-03-01T01:58:48.269Z,0
2017-03-01T01:59:28.904Z,0
2017-03-01T02:00:09.485Z,0
2017-03-01T02:00:50.090Z,0
2017-03-01T02:01:30.667Z,0
2017-03-01T02:02:11.243Z,0
2017-03-01T02:02:51.826Z,0
2017-03-01T02:03:32.398Z,0
2017-03-01T02:04:12.970Z,0
2017-03-01T02:04:53.561Z,0
2017-03-01T02:05:34.151Z,0
2017-03-01T02:06:14.747Z,0
2017-03-01T02:06:55.330Z,0
2017-03-01T02:07:35.977Z,0
2017-03-01T02:08:16.540Z,0
2017-03-01T02:08:57.111Z,0
2017-03-01T02:09:37.697Z,0
2017-03-01T02:10:18.266Z,0
2017-03-01T02:10:58.878Z,0
2017-03-01T02:11:39.478Z,0
2017-03-01T02:12:20.065Z,0
2017-03-01T02:13:00.652Z,0
2017-03-01T02:13:41.283Z,0
2017-03-01T02:14:21.867Z,0
2017-03-01T02:15:02.452Z,0
2017-03-01T02:15:43.029Z,0
2017-03-01T02:16:23.608Z,0
2017-03-01T02:17:04.205Z,0
2017-03-01T02:17:44.780Z,0
2017-03-01T02:18:25.355Z,0
2017-03-01T02:19:05.953Z,0
2017-03-01T02:19:46.524Z,0
2017-03-01T02:20:27.110Z,0
2017-03-01T02:21:07.699Z,0
2017-03-01T02:21:48.282Z,0
2017-03-01T02:22:28.856Z,0
2017-03-01T02:23:09.425Z,0
2017-03-01T02:23:49.998Z,0
2017-03-01T02:24:30.567Z,0
2017-03-01T02:25:11.140Z,0
2017-03-01T02:25:51.713Z,0
2017-03-01T02:26:32.278Z,0
2017-03-01T02:27:12.845Z,0
2017-03-01T02:27:53.422Z,0
2017-03-01T02:28:33.991Z,0
2017-03-01T02:29:14.567Z,0
2017-03-01T02:29:55.146Z,0
2017-03-01T02:30:35.728Z,0
2017-03-01T02:31:16.339Z,0
2017-03-01T02:31:56.901Z,0
2017-03-01T02:32:37.532Z,0
2017-03-01T02:33:18.113Z,0
2017-03-01T02:33:58.692Z,0
2017-03-01T02:34:39.270Z,0
2017-03-01T02:35:19.857Z,0
2017-03-01T02:36:00.446Z,0
2017-03-01T02:36:41.010Z,0
2017-03-01T02:37:21.579Z,0
2017-03-01T02:38:02.156Z,0
2017-03-01T02:38:42.760Z,0
2017-03-01T02:39:23.364Z,0
2017-03-01T02:40:03.962Z,0
2017-03-01T02:40:44.533Z,0
2017-03-01T02:41:25.106Z,0
2017-03-01T02:42:05.696Z,0
2017-03-01T02:42:46.310Z,0
2017-03-01T02:43:26.880Z,0
2017-03-01T02:44:07.467Z,0
2017-03-01T02:44:48.033Z,0
2017-03-01T02:45:28.618Z,0
2017-03-01T02:46:09.231Z,0
2017-03-01T02:46:49.819Z,0
2017-03-01T02:47:30.397Z,0
2017-03-01T02:48:10.983Z,0
2017-03-01T02:48:51.564Z,0
2017-03-01T02:49:32.168Z,0
2017-03-01T02:50:12.773Z,0
2017-03-01T02:50:53.370Z,0
2017-03-01T02:51:33.960Z,0
2017-03-01T02:52:14.525Z,0
2017-03-01T02:52:55.138Z,0
2017-03-01T02:53:35.708Z,0
2017-03-01T02:54:16.273Z,0
2017-03-01T02:54:56.865Z,0
2017-03-01T02:55:37.435Z,0
2017-03-01T02:56:18.038Z,0
2017-03-01T02:56:58.669Z,0
2017-03-01T02:57:39.249Z,0
2017-03-01T02:58:19.836Z,0
2017-03-01T02:59:00.422Z,0
2017-03-01T02:59:40.987Z,0
2017-03-01T03:00:21.576Z,0
2017-03-01T03:01:02.158Z,0
2017-03-01T03:01:42.862Z,0
2017-03-01T03:02:23.472Z,0
2017-03-01T03:03:04.049Z,0
2017-03-01T03:03:44.626Z,0
2017-03-01T03:04:25.218Z,0
2017-03-01T03:05:05.789Z,0
2017-03-01T03:05:46.359Z,0
2017-03-01T03:06:26.940Z,0
2017-03-01T03:07:07.537Z,0
2017-03-01T03:07:48.106Z,0
2017-03-01T03:08:28.699Z,0
2017-03-01T03:09:09.285Z,0
2017-03-01T03:09:49.860Z,0
2017-03-01T03:10:30.468Z,0
2017-03-01T03:11:11.058Z,0
2017-03-01T03:11:51.627Z,0
2017-03-01T03:12:32.191Z,0
2017-03-01T03:13:12.763Z,0
2017-03-01T03:13:53.340Z,0
2017-03-01T03:14:33.916Z,0
2017-03-01T03:15:14.496Z,0
2017-03-01T03:15:55.076Z,0
2017-03-01T03:16:35.679Z,0
2017-03-01T03:17:16.352Z,0
2017-03-01T03:17:56.931Z,0
2017-03-01T03:18:37.501Z,0
2017-03-01T03:19:18.079Z,0
2017-03-01T03:19:58.655Z,0
2017-03-01T03:20:41.858Z,0
2017-03-01T03:21:22.439Z,0
2017-03-01T03:22:03.014Z,0
2017-03-01T03:22:43.592Z,0
2017-03-01T03:23:24.176Z,0
2017-03-01T03:24:04.774Z,0
2017-03-01T03:24:45.369Z,0
2017-03-01T03:25:25.936Z,0
2017-03-01T03:26:06.513Z,0
2017-03-01T03:26:47.085Z,0
2017-03-01T03:27:27.667Z,0
2017-03-01T03:28:08.225Z,0
2017-03-01T03:28:48.815Z,0
2017-03-01T03:29:29.394Z,0
2017-03-01T03:30:09.982Z,0
2017-03-01T03:30:50.559Z,0
2017-03-01T03:31:31.145Z,0
2017-03-01T03:32:11.721Z,0
2017-03-01T03:32:52.299Z,0
2017-03-01T03:33:32.874Z,0
2017-03-01T03:34:13.456Z,0
2017-03-01T03:34:54.041Z,0
2017-03-01T03:35:34.652Z,0
2017-03-01T03:36:15.333Z,0
2017-03-01T03:36:55.983Z,0
2017-03-01T03:37:36.823Z,0
2017-03-01T03:38:17.581Z,0
2017-03-01T03:38:58.166Z,0
2017-03-01T03:39:38.762Z,0
2017-03-01T03:40:19.342Z,0
2017-03-01T03:40:59.929Z,0
2017-03-01T03:41:40.517Z,0
2017-03-01T03:42:21.094Z,0
2017-03-01T03:43:01.668Z,0
2017-03-01T03:43:42.251Z,0
2017-03-01T03:44:22.827Z,0
2017-03-01T03:45:03.502Z,0
2017-03-01T03:45:44.261Z,0
2017-03-01T03:46:24.975Z,0
2017-03-01T03:47:05.707Z,0
2017-03-01T03:47:46.401Z,0
2017-03-01T03:48:27.065Z,0
2017-03-01T03:49:07.753Z,0
2017-03-01T03:49:48.442Z,0
2017-03-01T03:50:29.103Z,0
2017-03-01T03:51:10.152Z,0
2017-03-01T03:51:51.020Z,0
2017-03-01T03:52:31.644Z,0
2017-03-01T03:53:12.229Z,0
2017-03-01T03:53:52.824Z,0
2017-03-01T03:54:33.418Z,0
2017-03-01T03:55:14.028Z,0
2017-03-01T03:55:54.618Z,0
2017-03-01T03:56:35.207Z,0
2017-03-01T03:57:15.783Z,0
2017-03-01T03:57:56.352Z,0
2017-03-01T03:58:36.916Z,0
2017-03-01T03:59:17.493Z,0
2017-03-01T03:59:58.061Z,0
2017-03-01T04:00:38.640Z,0
2017-03-01T04:01:19.309Z,0
2017-03-01T04:02:00.017Z,0
2017-03-01T04:02:40.604Z,0
2017-03-01T04:03:21.194Z,0
2017-03-01T04:04:01.827Z,0
2017-03-01T04:04:42.416Z,0
2017-03-01T04:05:23.002Z,0
2017-03-01T04:06:03.591Z,0
2017-03-01T04:06:44.194Z,0
2017-03-01T04:07:24.805Z,0
2017-03-01T04:08:05.387Z,0
2017-03-01T04:08:46.003Z,0
2017-03-01T04:09:26.579Z,0
2017-03-01T04:10:07.168Z,0
2017-03-01T04:10:47.739Z,0
2017-03-01T04:11:28.354Z,0
2017-03-01T04:12:08.973Z,0
2017-03-01T04:12:49.677Z,0
2017-03-01T04:13:30.278Z,0
2017-03-01T04:14:10.838Z,0
2017-03-01T04:14:51.467Z,0
2017-03-01T04:15:32.060Z,0
2017-03-01T04:16:12.648Z,0
2017-03-01T04:16:53.227Z,0
2017-03-01T04:17:33.831Z,0
2017-03-01T04:18:14.431Z,0
2017-03-01T04:18:55.044Z,0
2017-03-01T04:19:35.629Z,0
2017-03-01T04:20:16.284Z,0
2017-03-01T04:20:56.849Z,0
2017-03-01T04:21:37.480Z,0
2017-03-01T04:22:18.121Z,0
2017-03-01T04:22:58.733Z,0
2017-03-01T04:23:39.346Z,0
2017-03-01T04:24:19.953Z,0
2017-03-01T04:25:00.555Z,0
2017-03-01T04:25:41.188Z,0
2017-03-01T04:26:21.799Z,0
2017-03-01T04:27:02.401Z,0
2017-03-01T04:27:43.042Z,0
2017-03-01T04:28:23.727Z,0
2017-03-01T04:29:04.354Z,0
2017-03-01T04:29:44.968Z,0
2017-03-01T04:30:25.649Z,0
2017-03-01T04:31:06.288Z,0
2017-03-01T04:31:46.886Z,0
2017-03-01T04:32:27.514Z,0
2017-03-01T04:33:08.122Z,0
2017-03-01T04:33:48.727Z,0
2017-03-01T04:34:29.356Z,0
2017-03-01T04:35:09.988Z,0
2017-03-01T04:35:50.584Z,0
2017-03-01T04:36:31.168Z,0
2017-03-01T04:37:11.758Z,0
2017-03-01T04:37:52.355Z,0
2017-03-01T04:38:33.024Z,0
2017-03-01T04:39:13.570Z,0
2017-03-01T04:39:54.180Z,0
2017-03-01T04:40:34.811Z,0
2017-03-01T04:41:15.407Z,0
2017-03-01T04:41:56.028Z,0
2017-03-01T04:42:36.648Z,0
2017-03-01T04:43:17.310Z,0
2017-03-01T04:43:57.933Z,0
2017-03-01T04:44:38.538Z,0
2017-03-01T04:45:19.186Z,0
2017-03-01T04:45:59.776Z,0
2017-03-01T04:46:40.460Z,0
2017-03-01T04:47:21.002Z,0
2017-03-01T04:48:01.604Z,0
2017-03-01T04:48:42.169Z,0
2017-03-01T04:49:22.766Z,0
2017-03-01T04:50:03.367Z,0
2017-03-01T04:50:43.941Z,0
2017-03-01T04:51:24.534Z,0
2017-03-01T04:52:05.122Z,0
2017-03-01T04:52:45.717Z,0
2017-03-01T04:53:26.319Z,0
2017-03-01T04:54:06.901Z,0
2017-03-01T04:54:47.491Z,0
2017-03-01T04:55:28.073Z,0
2017-03-01T04:56:08.638Z,0
2017-03-01T04:56:49.228Z,0
2017-03-01T04:57:29.807Z,0
2017-03-01T04:58:10.413Z,0
2017-03-01T04:58:50.997Z,0
2017-03-01T04:59:31.586Z,0
2017-03-01T05:00:12.186Z,0
2017-03-01T05:00:52.743Z,0
2017-03-01T05:01:33.317Z,0
2017-03-01T05:02:13.896Z,0
2017-03-01T05:02:54.481Z,0
2017-03-01T05:03:35.087Z,0
2017-03-01T05:04:15.694Z,0
2017-03-01T05:04:56.302Z,0
2017-03-01T05:05:36.874Z,0
2017-03-01T05:06:17.449Z,0
2017-03-01T05:06:58.024Z,0
2017-03-01T05:07:38.621Z,0
2017-03-01T05:08:19.203Z,0
2017-03-01T05:08:59.787Z,0
2017-03-01T05:09:40.408Z,0
2017-03-01T05:10:21.001Z,0
2017-03-01T05:11:01.663Z,0
2017-03-01T05:11:42.233Z,0
2017-03-01T05:12:22.943Z,0
2017-03-01T05:13:03.644Z,0
2017-03-01T05:13:44.257Z,0
2017-03-01T05:14:24.869Z,0
2017-03-01T05:15:05.486Z,0
2017-03-01T05:15:46.067Z,0
2017-03-01T05:16:26.662Z,0
2017-03-01T05:17:07.241Z,0
2017-03-01T05:17:47.819Z,0
2017-03-01T05:18:28.390Z,0
2017-03-01T05:19:09.011Z,0
2017-03-01T05:19:49.597Z,0
2017-03-01T05:20:30.171Z,0
2017-03-01T05:21:10.758Z,0
2017-03-01T05:21:51.378Z,0
2017-03-01T05:22:31.930Z,0
2017-03-01T05:23:12.493Z,4
2017-03-01T05:23:53.075Z,4
2017-03-01T05:24:33.647Z,4
2017-03-01T05:25:14.255Z,4
2017-03-01T05:25:54.857Z,4
2017-03-01T05:26:35.457Z,4
2017-03-01T05:27:16.032Z,4
2017-03-01T05:27:56.616Z,4
2017-03-01T05:28:37.308Z,4
2017-03-01T05:29:18.067Z,4
2017-03-01T05:29:58.648Z,4
2017-03-01T05:30:39.288Z,8
2017-03-01T05:31:19.896Z,8
2017-03-01T05:32:00.547Z,12
2017-03-01T05:32:41.242Z,12
2017-03-01T05:33:22.211Z,12
2017-03-01T05:34:02.916Z,12
2017-03-01T05:34:43.491Z,12
2017-03-01T05:35:24.131Z,16
2017-03-01T05:36:05.212Z,20
2017-03-01T05:36:46.047Z,20
2017-03-01T05:37:26.625Z,24
2017-03-01T05:38:07.216Z,24
2017-03-01T05:38:47.786Z,28
2017-03-01T05:39:28.376Z,28
2017-03-01T05:40:08.968Z,32
2017-03-01T05:40:49.573Z,36
2017-03-01T05:41:30.148Z,36
2017-03-01T05:42:10.735Z,44
2017-03-01T05:42:51.354Z,44
2017-03-01T05:43:31.950Z,48
2017-03-01T05:44:12.537Z,52
2017-03-01T05:44:53.109Z,56
2017-03-01T05:45:33.696Z,60
2017-03-01T05:46:14.275Z,60
2017-03-01T05:46:54.854Z,60
2017-03-01T05:47:35.462Z,60
2017-03-01T05:48:16.070Z,64
2017-03-01T05:48:56.658Z,60
2017-03-01T05:49:37.243Z,64
2017-03-01T05:50:17.810Z,64
2017-03-01T05:50:58.396Z,64
2017-03-01T05:51:38.996Z,68
2017-03-01T05:52:19.588Z,72
2017-03-01T05:53:00.602Z,76
2017-03-01T05:53:41.188Z,80
2017-03-01T05:54:21.779Z,88
2017-03-01T05:55:02.350Z,104
2017-03-01T05:55:42.925Z,120
2017-03-01T05:56:23.498Z,136
2017-03-01T05:57:04.105Z,156
2017-03-01T05:57:44.692Z,168
2017-03-01T05:58:25.301Z,188
2017-03-01T05:59:05.980Z,204
2017-03-01T05:59:46.543Z,220
2017-03-01T06:00:27.120Z,236
2017-03-01T06:01:07.706Z,244
2017-03-01T06:01:48.380Z,260
2017-03-01T06:02:29.168Z,272
2017-03-01T06:03:09.759Z,296
2017-03-01T06:03:50.355Z,308
2017-03-01T06:04:30.919Z,320
2017-03-01T06:05:11.481Z,336
2017-03-01T06:05:52.064Z,352
2017-03-01T06:06:32.646Z,364
2017-03-01T06:07:13.227Z,384
2017-03-01T06:07:53.839Z,404
2017-03-01T06:08:34.445Z,424
2017-03-01T06:09:15.054Z,444
2017-03-01T06:09:55.630Z,460
2017-03-01T06:10:36.220Z,480
2017-03-01T06:11:16.822Z,500
2017-03-01T06:11:57.397Z,520
2017-03-01T06:12:37.989Z,540
2017-03-01T06:13:18.566Z,560
2017-03-01T06:13:59.237Z,576
2017-03-01T06:14:39.821Z,600
2017-03-01T06:15:20.414Z,624
2017-03-01T06:16:00.986Z,644
2017-03-01T06:16:41.561Z,664
2017-03-01T06:17:22.153Z,680
2017-03-01T06:18:02.722Z,692
2017-03-01T06:18:43.472Z,700
2017-03-01T06:19:24.054Z,700
2017-03-01T06:20:04.625Z,696
2017-03-01T06:20:45.252Z,680
2017-03-01T06:21:25.849Z,656
2017-03-01T06:22:06.418Z,640
2017-03-01T06:22:46.992Z,644
2017-03-01T06:23:27.562Z,688
2017-03-01T06:24:08.175Z,668
2017-03-01T06:24:48.764Z,704
2017-03-01T06:25:29.378Z,752
2017-03-01T06:26:10.036Z,800
2017-03-01T06:26:50.604Z,844
2017-03-01T06:27:31.213Z,912
2017-03-01T06:28:11.780Z,984
2017-03-01T06:28:52.347Z,1020
2017-03-01T06:29:32.926Z,1036
2017-03-01T06:30:13.521Z,1036
2017-03-01T06:30:54.083Z,1008
2017-03-01T06:31:34.656Z,964
2017-03-01T06:32:15.215Z,888
2017-03-01T06:32:55.796Z,816
2017-03-01T06:33:36.363Z,752
2017-03-01T06:34:16.944Z,688
2017-03-01T06:34:57.519Z,656
2017-03-01T06:35:38.103Z,644
2017-03-01T06:36:18.674Z,632
2017-03-01T06:36:59.256Z,624
2017-03-01T06:37:39.840Z,620
2017-03-01T06:38:20.471Z,620
2017-03-01T06:39:01.067Z,624
2017-03-01T06:39:41.634Z,624
2017-03-01T06:40:22.271Z,632
2017-03-01T06:41:02.926Z,640
2017-03-01T06:41:43.503Z,648
2017-03-01T06:42:24.087Z,664
2017-03-01T06:43:04.671Z,680
2017-03-01T06:43:45.293Z,692
2017-03-01T06:44:25.868Z,700
2017-03-01T06:45:06.458Z,692
2017-03-01T06:45:47.079Z,676
2017-03-01T06:46:27.667Z,656
2017-03-01T06:47:08.241Z,632
2017-03-01T06:47:48.808Z,608
2017-03-01T06:48:29.405Z,592
2017-03-01T06:49:09.977Z,580
2017-03-01T06:49:50.551Z,564
2017-03-01T06:50:31.142Z,556
2017-03-01T06:51:11.731Z,552
2017-03-01T06:51:52.305Z,544
2017-03-01T06:52:32.888Z,548
2017-03-01T06:53:13.462Z,556
2017-03-01T06:53:54.027Z,560
2017-03-01T06:54:34.615Z,572
2017-03-01T06:55:15.217Z,580
2017-03-01T06:55:55.808Z,592
2017-03-01T06:56:36.439Z,608
2017-03-01T06:57:17.029Z,624
2017-03-01T06:57:57.606Z,648
2017-03-01T06:58:38.181Z,676
2017-03-01T06:59:18.771Z,708
2017-03-01T06:59:59.336Z,744
2017-03-01T07:00:39.905Z,788
2017-03-01T07:01:20.472Z,836
2017-03-01T07:02:01.071Z,896
2017-03-01T07:02:41.646Z,956
2017-03-01T07:03:22.206Z,1008
2017-03-01T07:04:02.765Z,1060
2017-03-01T07:04:43.350Z,1096
2017-03-01T07:05:23.927Z,1128
2017-03-01T07:06:04.535Z,1168
2017-03-01T07:06:45.118Z,1216
2017-03-01T07:07:25.691Z,1256
2017-03-01T07:08:06.318Z,1332
2017-03-01T07:08:46.860Z,1428
2017-03-01T07:09:27.424Z,1520
2017-03-01T07:10:07.993Z,1616
2017-03-01T07:10:48.566Z,1732
2017-03-01T07:11:29.145Z,1848
2017-03-01T07:12:09.771Z,1960
2017-03-01T07:12:50.407Z,2012
2017-03-01T07:13:30.976Z,2088
2017-03-01T07:14:11.543Z,2136
2017-03-01T07:14:52.159Z,2340
2017-03-01T07:15:32.732Z,2432
2017-03-01T07:16:13.304Z,2520
2017-03-01T07:16:53.919Z,2512
2017-03-01T07:17:34.480Z,2492
2017-03-01T07:18:15.079Z,2424
2017-03-01T07:18:55.674Z,2380
2017-03-01T07:19:36.266Z,2252
2017-03-01T07:20:16.839Z,1960
2017-03-01T07:20:57.443Z,1632
2017-03-01T07:21:38.032Z,1412
2017-03-01T07:22:18.608Z,1392
2017-03-01T07:22:59.216Z,1568
2017-03-01T07:23:39.818Z,1908
2017-03-01T07:24:20.402Z,1840
2017-03-01T07:25:00.979Z,1904
2017-03-01T07:25:41.593Z,1992
2017-03-01T07:26:22.228Z,1724
2017-03-01T07:27:02.786Z,1880
2017-03-01T07:27:43.430Z,2096
2017-03-01T07:28:24.003Z,2740
2017-03-01T07:29:04.572Z,2972
2017-03-01T07:29:45.184Z,4344
2017-03-01T07:30:25.796Z,4952
2017-03-01T07:31:06.389Z,5032
2017-03-01T07:31:46.957Z,5432
2017-03-01T07:32:27.528Z,7192
2017-03-01T07:33:08.139Z,7388
2017-03-01T07:33:48.715Z,8568
2017-03-01T07:34:29.300Z,9808
2017-03-01T07:35:09.880Z,10384
2017-03-01T07:35:50.460Z,11052
2017-03-01T07:36:31.036Z,10488
2017-03-01T07:37:11.616Z,10136
2017-03-01T07:37:52.293Z,9196
2017-03-01T07:38:32.865Z,8236
2017-03-01T07:39:13.459Z,7704
2017-03-01T07:39:54.100Z,7004
2017-03-01T07:40:34.693Z,6100
2017-03-01T07:41:15.279Z,6080
2017-03-01T07:41:55.872Z,6784
2017-03-01T07:42:36.447Z,7104
2017-03-01T07:43:17.090Z,8048
2017-03-01T07:43:57.668Z,8628
2017-03-01T07:44:38.280Z,9816
2017-03-01T07:45:18.865Z,9780
2017-03-01T07:45:59.462Z,8480
2017-03-01T07:46:40.035Z,7592
2017-03-01T07:47:20.622Z,7792
2017-03-01T07:48:01.218Z,6228
2017-03-01T07:48:41.794Z,6312
2017-03-01T07:49:22.381Z,6236
2017-03-01T07:50:03.012Z,7448
2017-03-01T07:50:43.640Z,9236
2017-03-01T07:51:24.255Z,12448
2017-03-01T07:52:04.824Z,12376
2017-03-01T07:52:45.478Z,12552
2017-03-01T07:53:26.043Z,10192
2017-03-01T07:54:06.657Z,20000
2017-03-01T07:54:47.247Z,52672
2017-03-01T07:55:27.834Z,11224
2017-03-01T07:56:08.398Z,7220
2017-03-01T07:56:49.019Z,80128
2017-03-01T07:57:29.611Z,81184
2017-03-01T07:58:10.188Z,10300
2017-03-01T07:58:50.815Z,82112
2017-03-01T07:59:31.398Z,6072
2017-03-01T08:00:12.004Z,11404
2017-03-01T08:00:52.606Z,46048
2017-03-01T08:01:33.260Z,82720
2017-03-01T08:02:13.859Z,83872
2017-03-01T08:02:54.425Z,86304
2017-03-01T08:03:35.012Z,86560
2017-03-01T08:04:15.584Z,85760
2017-03-01T08:04:56.191Z,19968
2017-03-01T08:05:36.760Z,44448
2017-03-01T08:06:17.362Z,84992
2017-03-01T08:06:57.960Z,84096
2017-03-01T08:07:38.710Z,85248
2017-03-01T08:08:19.319Z,84512
2017-03-01T08:08:59.980Z,82784
2017-03-01T08:09:42.934Z,71200
2017-03-01T08:10:28.720Z,55712
2017-03-01T08:11:09.856Z,38080
2017-03-01T08:11:50.449Z,87008
2017-03-01T08:12:31.044Z,84096
2017-03-01T08:13:11.615Z,66528
2017-03-01T08:13:52.248Z,80032
2017-03-01T08:14:32.858Z,76960
2017-03-01T08:15:13.750Z,80160
2017-03-01T08:15:54.381Z,80224
2017-03-01T08:16:34.935Z,80608
2017-03-01T08:17:15.553Z,79072
2017-03-01T08:17:56.165Z,85376
2017-03-01T08:18:36.755Z,81504
2017-03-01T08:19:17.346Z,81568
2017-03-01T08:19:57.967Z,81536
2017-03-01T08:20:38.598Z,77248
2017-03-01T08:21:19.186Z,79968
2017-03-01T08:21:59.785Z,79360
2017-03-01T08:22:40.374Z,79104
2017-03-01T08:23:20.972Z,79840
2017-03-01T08:24:01.564Z,80832
2017-03-01T08:24:42.158Z,80832
2017-03-01T08:25:22.786Z,81088
2017-03-01T08:26:04.473Z,80864
2017-03-01T08:26:45.062Z,78208
2017-03-01T08:27:25.671Z,75040
2017-03-01T08:28:06.281Z,75360
2017-03-01T08:28:47.164Z,76448
2017-03-01T08:29:28.175Z,77280
2017-03-01T08:30:09.429Z,76480
2017-03-01T08:30:50.910Z,80192
2017-03-01T08:31:32.235Z,78528
2017-03-01T08:32:13.716Z,78112
2017-03-01T08:32:54.498Z,76768
2017-03-01T08:33:35.075Z,76896
2017-03-01T08:34:15.669Z,80384
2017-03-01T08:34:56.256Z,80288
2017-03-01T08:35:36.868Z,78432
2017-03-01T08:36:17.483Z,75872
2017-03-01T08:36:58.095Z,77920
2017-03-01T08:37:38.728Z,76704
2017-03-01T08:38:21.739Z,74912
2017-03-01T08:39:02.875Z,74528
2017-03-01T08:39:44.366Z,17728
2017-03-01T08:40:25.652Z,67136
2017-03-01T08:41:06.738Z,64192
2017-03-01T08:41:47.282Z,46528
2017-03-01T08:42:27.910Z,51488
2017-03-01T08:43:08.523Z,47584
2017-03-01T08:43:49.138Z,62080
2017-03-01T08:44:29.729Z,60832
2017-03-01T08:45:10.314Z,59552
2017-03-01T08:45:50.910Z,56960
2017-03-01T08:46:31.515Z,51168
2017-03-01T08:47:12.098Z,52928
2017-03-01T08:47:52.717Z,50080
2017-03-01T08:48:33.289Z,46848
2017-03-01T08:49:13.901Z,44352
2017-03-01T08:49:54.507Z,28352
2017-03-01T08:50:35.151Z,42880
2017-03-01T08:51:15.738Z,41312
2017-03-01T08:51:56.345Z,38688
2017-03-01T08:52:37.006Z,28928
2017-03-01T08:53:17.616Z,36480
2017-03-01T08:53:58.208Z,34464
2017-03-01T08:54:38.799Z,32224
2017-03-01T08:55:19.382Z,29760
2017-03-01T08:56:00.045Z,26144
2017-03-01T08:56:40.651Z,23936
2017-03-01T08:57:21.236Z,20992
2017-03-01T08:58:01.836Z,19936
2017-03-01T08:58:42.420Z,19584
2017-03-01T08:59:23.019Z,18880
2017-03-01T09:00:03.607Z,17824
2017-03-01T09:00:44.225Z,17056
2017-03-01T09:01:24.847Z,16384
2017-03-01T09:02:05.427Z,15712
2017-03-01T09:02:46.015Z,14684
2017-03-01T09:03:26.603Z,14148
2017-03-01T09:04:07.180Z,13596
2017-03-01T09:04:47.769Z,13104
2017-03-01T09:05:28.355Z,12504
2017-03-01T09:06:08.976Z,12076
2017-03-01T09:06:49.565Z,11792
2017-03-01T09:07:30.165Z,11568
2017-03-01T09:08:10.754Z,10876
2017-03-01T09:08:51.383Z,10448
2017-03-01T09:09:31.959Z,10132
2017-03-01T09:10:12.569Z,9900
2017-03-01T09:10:53.158Z,7824
2017-03-01T09:11:33.773Z,10144
2017-03-01T09:12:14.382Z,9584
2017-03-01T09:12:55.003Z,8832
2017-03-01T09:13:35.584Z,7136
2017-03-01T09:14:16.162Z,8188
2017-03-01T09:14:56.772Z,8020
2017-03-01T09:15:37.359Z,7452
2017-03-01T09:16:17.994Z,7384
2017-03-01T09:16:58.575Z,7412
2017-03-01T09:17:39.175Z,7248
2017-03-01T09:18:19.753Z,6680
2017-03-01T09:19:00.409Z,4836
2017-03-01T09:19:40.994Z,5192
2017-03-01T09:20:21.705Z,7324
2017-03-01T09:21:02.287Z,7252
2017-03-01T09:21:42.860Z,7992
2017-03-01T09:22:23.454Z,8032
2017-03-01T09:23:04.049Z,8508
2017-03-01T09:23:44.648Z,8412
2017-03-01T09:24:25.257Z,7988
2017-03-01T09:25:05.921Z,7936
2017-03-01T09:25:46.538Z,8084
2017-03-01T09:26:27.137Z,7776
2017-03-01T09:27:07.725Z,7796
2017-03-01T09:27:48.380Z,7112
2017-03-01T09:28:28.983Z,6156
2017-03-01T09:29:09.546Z,5740
2017-03-01T09:29:50.133Z,6188
2017-03-01T09:30:30.714Z,6284
2017-03-01T09:31:11.289Z,6380
2017-03-01T09:31:51.867Z,5616
2017-03-01T09:32:32.498Z,6324
2017-03-01T09:33:13.092Z,6644
2017-03-01T09:33:53.701Z,6540
2017-03-01T09:34:34.281Z,6732
2017-03-01T09:35:14.859Z,6920